Time;durP1;ratioP1;P1;durP2;ratioP2;P2;SDS_P1;SDS_P2;PMS_P1;PMS_P2;Temp;Humidity;BMP_temperature;BMP_pressure;BME280_temperature;BME280_humidity;BME280_pressure;Samples;Min_cycle;Max_cycle;Signal;HPM_P1;HPM_P2
2023/09/30 00:00:58;;;;;;;8.00;1.65;;;;;;;13.96;90.55;102584.63;4998340;28;96761;-26
2023/09/30 00:03:23;;;;;;;3.15;1.38;;;;;;;14.00;90.63;102594.44;4997457;28;99630;-26
2023/09/30 00:05:49;;;;;;;2.08;1.33;;;;;;;13.96;90.55;102595.53;4997632;28;99307;-26
2023/09/30 00:08:15;;;;;;;5.10;2.00;;;;;;;14.01;90.32;102601.66;4998165;28;96488;-26
2023/09/30 00:10:40;;;;;;;5.45;1.38;;;;;;;14.00;89.98;102590.84;4997895;28;96845;-26
2023/09/30 00:13:08;;;;;;;3.75;1.83;;;;;;;14.05;90.17;102598.78;4997462;28;97441;-26
2023/09/30 00:15:34;;;;;;;3.97;1.52;;;;;;;14.05;90.58;102593.34;4997271;28;99810;-26
2023/09/30 00:18:01;;;;;;;3.88;1.90;;;;;;;13.99;90.69;102584.50;4996602;28;96600;-26
2023/09/30 00:20:27;;;;;;;3.17;1.88;;;;;;;14.03;90.86;102597.00;4996451;28;96827;-27
2023/09/30 00:22:52;;;;;;;3.67;1.55;;;;;;;14.05;90.58;102588.75;4995841;28;101055;-27
2023/09/30 00:25:17;;;;;;;3.38;1.58;;;;;;;14.01;90.51;102588.03;4997104;28;99308;-27
2023/09/30 00:27:43;;;;;;;4.10;1.88;;;;;;;13.99;91.03;102595.41;4997845;28;96497;-26
2023/09/30 00:30:08;;;;;;;6.75;1.65;;;;;;;13.99;91.30;102598.13;4998358;28;96820;-26
2023/09/30 00:32:34;;;;;;;3.22;1.63;;;;;;;13.99;91.49;102605.41;4997035;28;98778;-26
2023/09/30 00:35:02;;;;;;;3.53;1.65;;;;;;;13.95;91.54;102587.44;4997571;28;97317;-27
2023/09/30 00:37:28;;;;;;;4.38;1.83;;;;;;;13.93;91.65;102597.53;4996597;28;96630;-26
2023/09/30 00:39:53;;;;;;;7.53;2.10;;;;;;;13.98;91.49;102600.91;4997604;28;96825;-26
2023/09/30 00:42:20;;;;;;;2.58;1.45;;;;;;;13.97;91.33;102607.34;4997211;28;97368;-26
2023/09/30 00:44:46;;;;;;;3.00;1.65;;;;;;;13.94;91.24;102608.38;4995056;28;101208;-26
2023/09/30 00:47:12;;;;;;;3.33;1.92;;;;;;;13.96;91.16;102619.16;4996149;28;96750;-26
2023/09/30 00:49:38;;;;;;;5.72;2.00;;;;;;;13.97;91.32;102619.09;4997633;28;96761;-26
2023/09/30 00:52:04;;;;;;;4.35;1.98;;;;;;;14.01;91.19;102619.84;4995547;28;101156;-26
2023/09/30 00:54:30;;;;;;;3.28;2.00;;;;;;;13.99;91.48;102613.56;4997368;28;97903;-26
2023/09/30 00:56:56;;;;;;;3.65;1.63;;;;;;;13.99;91.30;102614.47;4995661;28;96626;-27
2023/09/30 00:59:22;;;;;;;4.28;1.67;;;;;;;13.98;91.13;102620.00;4997354;28;96534;-26
2023/09/30 01:01:48;;;;;;;3.70;1.67;;;;;;;13.99;90.95;102624.47;4994945;28;101230;-26
2023/09/30 01:04:14;;;;;;;6.22;2.20;;;;;;;13.98;92.49;102641.78;4995415;28;100927;-26
2023/09/30 01:06:40;;;;;;;3.47;1.83;;;;;;;14.01;92.03;102657.97;4995636;28;96682;-27
2023/09/30 01:09:07;;;;;;;5.85;1.85;;;;;;;13.90;91.86;102642.16;4997199;28;96891;-26
2023/09/30 01:11:33;;;;;;;4.65;2.28;;;;;;;13.97;91.52;102646.34;4995343;28;100854;-27
2023/09/30 01:13:58;;;;;;;3.58;1.63;;;;;;;13.97;91.92;102631.84;4995340;28;101487;-26
2023/09/30 01:16:24;;;;;;;3.60;1.70;;;;;;;14.02;91.74;102637.97;4997353;28;96543;-26
2023/09/30 01:18:49;;;;;;;3.67;1.52;;;;;;;14.03;92.05;102645.16;4997445;28;96792;-26
2023/09/30 01:21:15;;;;;;;3.75;1.85;;;;;;;14.00;91.94;102639.88;4996614;28;96785;-26
2023/09/30 01:23:43;;;;;;;4.88;1.95;;;;;;;14.00;91.44;102627.13;4996759;28;97888;-26
2023/09/30 01:26:13;;;;;;;6.35;1.67;;;;;;;14.02;91.96;102629.78;4995061;28;96650;-26
2023/09/30 01:28:39;;;;;;;5.20;1.90;;;;;;;14.02;91.48;102627.06;4995534;28;96959;-28
2023/09/30 01:31:05;;;;;;;4.68;1.80;;;;;;;13.99;92.22;102632.63;4995096;28;101432;-26
2023/09/30 01:33:31;;;;;;;3.05;1.80;;;;;;;14.02;92.42;102641.56;4996748;28;97962;-26
2023/09/30 01:35:57;;;;;;;6.22;1.88;;;;;;;14.00;92.45;102642.59;4995302;28;96761;-26
2023/09/30 01:38:22;;;;;;;2.95;1.77;;;;;;;14.00;92.21;102638.03;4996942;28;96807;-27
2023/09/30 01:40:48;;;;;;;7.88;2.47;;;;;;;14.02;92.07;102627.06;4996453;28;97985;-26
2023/09/30 01:43:14;;;;;;;3.78;1.83;;;;;;;14.07;92.13;102627.72;4996263;28;97954;-26
2023/09/30 01:45:44;;;;;;;4.00;2.22;;;;;;;14.10;92.35;102635.75;4997163;28;96542;-26
2023/09/30 01:48:11;;;;;;;8.48;1.88;;;;;;;14.09;92.54;102633.13;4995201;28;96982;-30
2023/09/30 01:50:39;;;;;;;3.50;1.83;;;;;;;14.09;92.66;102650.34;4994403;28;101662;-26
2023/09/30 01:53:06;;;;;;;7.43;2.50;;;;;;;14.09;92.20;102644.03;4996058;28;99528;-26
2023/09/30 01:55:33;;;;;;;5.03;2.10;;;;;;;14.05;92.50;102642.38;4995344;28;96478;-26
2023/09/30 01:57:58;;;;;;;3.00;1.88;;;;;;;14.07;93.27;102652.25;4996802;28;96773;-26
2023/09/30 02:00:23;;;;;;;7.28;2.53;;;;;;;14.07;93.09;102652.25;4996616;28;97357;-26
2023/09/30 02:02:49;;;;;;;6.32;2.65;;;;;;;14.03;93.46;102646.06;4996026;28;97356;-26
2023/09/30 02:05:14;;;;;;;8.18;2.25;;;;;;;14.07;93.09;102649.53;4997042;28;96499;-27
2023/09/30 02:07:40;;;;;;;5.90;2.33;;;;;;;14.05;93.05;102637.81;4997057;28;96838;-27
2023/09/30 02:10:07;;;;;;;7.72;2.55;;;;;;;14.10;93.70;102641.19;4998019;28;101106;-27
2023/09/30 02:12:32;;;;;;;4.45;2.20;;;;;;;14.08;93.84;102654.00;4997993;28;100884;-27
2023/09/30 02:14:58;;;;;;;6.20;2.22;;;;;;;14.09;93.02;102654.91;4999404;28;96558;-26
2023/09/30 02:17:24;;;;;;;5.53;2.15;;;;;;;14.06;93.38;102625.06;4998025;28;96971;-26
2023/09/30 02:19:49;;;;;;;4.50;2.45;;;;;;;14.08;93.43;102631.34;4999463;28;98389;-26
2023/09/30 02:22:15;;;;;;;6.28;2.60;;;;;;;14.07;93.27;102621.41;4997824;28;100647;-26
2023/09/30 02:24:40;;;;;;;4.18;2.30;;;;;;;14.10;93.38;102621.25;4999788;28;96476;-26
2023/09/30 02:27:06;;;;;;;4.50;2.28;;;;;;;14.03;93.51;102612.47;4999523;28;96996;-26
2023/09/30 02:29:31;;;;;;;5.40;2.35;;;;;;;14.00;93.78;102618.97;4999269;28;98006;-27
2023/09/30 02:31:57;;;;;;;5.97;2.10;;;;;;;14.05;93.57;102620.59;4999586;28;97857;-27
2023/09/30 02:34:23;;;;;;;6.10;2.30;;;;;;;14.05;93.72;102620.59;4998193;28;96652;-27
2023/09/30 02:36:49;;;;;;;5.72;2.45;;;;;;;14.04;93.65;102625.16;4999660;28;96810;-26
2023/09/30 02:39:16;;;;;;;5.68;2.42;;;;;;;14.00;93.66;102616.22;4998210;28;98987;-26
2023/09/30 02:41:42;;;;;;;3.50;2.13;;;;;;;13.97;93.74;102619.09;4998796;28;99831;-26
2023/09/30 02:44:07;;;;;;;5.10;2.47;;;;;;;14.02;93.55;102625.22;4998534;28;96927;-26
2023/09/30 02:46:32;;;;;;;6.60;2.70;;;;;;;13.99;93.78;102622.66;4999205;28;96527;-27
2023/09/30 02:48:58;;;;;;;4.22;2.47;;;;;;;13.98;94.54;102639.94;4998861;28;97350;-26
2023/09/30 02:51:25;;;;;;;7.30;2.90;;;;;;;13.99;94.08;102647.19;4999070;28;97294;-26
2023/09/30 02:53:50;;;;;;;6.25;2.42;;;;;;;13.96;94.14;102627.34;4999108;28;96579;-26
2023/09/30 02:56:15;;;;;;;4.50;2.30;;;;;;;14.01;94.79;102628.00;4999991;28;96789;-26
2023/09/30 02:58:41;;;;;;;5.38;2.55;;;;;;;13.98;94.75;102620.00;4998621;28;99067;-26
2023/09/30 03:01:06;;;;;;;6.65;2.67;;;;;;;14.00;94.86;102628.97;4998891;28;97876;-27
2023/09/30 03:03:33;;;;;;;5.25;2.67;;;;;;;13.97;94.91;102630.00;4998425;28;96609;-27
2023/09/30 03:06:00;;;;;;;4.70;2.67;;;;;;;13.95;94.54;102603.78;4997595;28;96834;-27
2023/09/30 03:08:25;;;;;;;5.25;2.63;;;;;;;13.97;94.54;102616.38;4997140;28;98953;-26
2023/09/30 03:10:51;;;;;;;4.63;2.53;;;;;;;14.02;95.07;102627.94;4998539;28;97396;-27
2023/09/30 03:13:18;;;;;;;11.65;3.38;;;;;;;14.07;94.83;102626.84;4998838;28;96488;-26
2023/09/30 03:15:44;;;;;;;10.20;3.22;;;;;;;14.07;94.32;102624.13;4997562;28;96867;-27
2023/09/30 03:18:09;;;;;;;5.70;2.80;;;;;;;14.03;95.01;102620.66;4998502;28;98048;-27
2023/09/30 03:20:36;;;;;;;5.25;2.67;;;;;;;14.07;95.42;102621.41;4998415;28;99380;-26
2023/09/30 03:23:04;;;;;;;5.95;2.70;;;;;;;14.07;94.66;102621.41;4997229;28;96513;-26
2023/09/30 03:25:30;;;;;;;4.60;2.63;;;;;;;14.07;94.75;102622.28;4998640;28;96931;-26
2023/09/30 03:27:56;;;;;;;5.80;2.80;;;;;;;14.03;94.72;102621.53;4997663;28;97896;-27
2023/09/30 03:30:22;;;;;;;5.97;2.80;;;;;;;14.08;94.99;102629.47;4996651;28;101486;-26
2023/09/30 03:32:47;;;;;;;5.47;2.95;;;;;;;14.04;94.60;102622.44;4998738;28;96481;-26
2023/09/30 03:35:16;;;;;;;5.72;2.53;;;;;;;14.04;94.05;102619.72;4998866;28;96933;-27
2023/09/30 03:37:44;;;;;;;4.35;2.35;;;;;;;14.08;94.87;102621.31;4996317;28;101095;-26
2023/09/30 03:40:14;;;;;;;6.65;2.70;;;;;;;14.09;94.73;102623.09;4996730;28;100859;-26
2023/09/30 03:42:43;;;;;;;5.90;2.05;;;;;;;14.07;94.48;102629.56;4998322;28;96736;-26
2023/09/30 03:45:09;;;;;;;5.63;2.88;;;;;;;14.04;95.16;102622.44;4996980;28;97177;-26
2023/09/30 03:47:39;;;;;;;4.82;2.58;;;;;;;14.07;95.20;102621.41;4996394;28;100847;-27
2023/09/30 03:50:05;;;;;;;5.20;2.55;;;;;;;14.07;94.96;102618.69;4996603;28;100734;-26
2023/09/30 03:52:33;;;;;;;6.63;2.88;;;;;;;14.06;94.95;102614.16;4997822;28;96496;-27
2023/09/30 03:55:04;;;;;;;5.35;2.30;;;;;;;14.09;95.35;102623.09;4996963;28;96881;-26
2023/09/30 03:57:31;;;;;;;5.00;2.80;;;;;;;14.03;95.45;102620.66;4996086;28;101401;-26
2023/09/30 03:59:57;;;;;;;9.02;2.40;;;;;;;14.06;95.08;102627.78;4996384;28;100863;-26
2023/09/30 04:02:22;;;;;;;4.95;2.65;;;;;;;14.06;94.90;102625.94;4998054;28;96565;-26
2023/09/30 04:04:50;;;;;;;5.93;3.00;;;;;;;14.02;94.98;102619.78;4998313;28;96445;-27
2023/09/30 04:07:16;;;;;;;3.97;2.30;;;;;;;14.03;95.17;102628.81;4997561;28;98041;-27
2023/09/30 04:09:42;;;;;;;5.72;2.35;;;;;;;14.01;95.44;102626.19;4997854;28;99195;-26
2023/09/30 04:12:07;;;;;;;8.45;2.47;;;;;;;14.01;95.69;102619.84;4997745;28;96788;-26
2023/09/30 04:14:33;;;;;;;4.68;3.03;;;;;;;13.98;95.73;102609.09;4998351;28;96820;-26
2023/09/30 04:16:58;;;;;;;5.25;2.97;;;;;;;13.96;95.40;102611.00;4997218;28;97415;-27
2023/09/30 04:19:23;;;;;;;6.30;2.60;;;;;;;14.00;95.59;102628.97;4997483;28;97279;-27
2023/09/30 04:21:49;;;;;;;5.47;2.78;;;;;;;13.98;95.37;102620.00;4997987;28;97387;-27
2023/09/30 04:24:14;;;;;;;8.90;3.33;;;;;;;13.96;95.71;102614.59;4998081;28;96764;-26
2023/09/30 04:26:41;;;;;;;6.22;3.15;;;;;;;13.98;95.22;102630.88;4997206;28;97521;-26
2023/09/30 04:29:10;;;;;;;5.65;2.97;;;;;;;13.98;95.54;102639.06;4997127;28;99280;-27
2023/09/30 04:31:39;;;;;;;9.98;3.30;;;;;;;13.91;95.86;102635.72;4997092;28;96822;-26
2023/09/30 04:34:04;;;;;;;4.68;2.83;;;;;;;13.90;96.12;102639.44;4996659;28;96884;-26
2023/09/30 04:36:30;;;;;;;8.30;3.10;;;;;;;13.93;96.52;102649.28;4997014;28;99774;-27
2023/09/30 04:38:56;;;;;;;4.43;2.78;;;;;;;13.93;96.53;102647.44;4995677;28;100894;-26
2023/09/30 04:41:21;;;;;;;5.38;2.90;;;;;;;13.95;96.26;102650.13;4997124;28;96507;-27
2023/09/30 04:43:47;;;;;;;7.82;3.35;;;;;;;13.90;96.06;102644.00;4997281;28;96897;-26
2023/09/30 04:46:13;;;;;;;6.13;2.92;;;;;;;13.91;96.12;102651.19;4996801;28;99926;-26
2023/09/30 04:48:39;;;;;;;7.53;2.88;;;;;;;13.90;96.03;102655.78;4995729;28;100801;-26
2023/09/30 04:51:08;;;;;;;8.82;3.00;;;;;;;13.88;95.99;102646.78;4996215;28;96569;-26
2023/09/30 04:53:34;;;;;;;7.97;3.20;;;;;;;13.86;95.96;102636.91;4996025;28;96815;-27
2023/09/30 04:56:00;;;;;;;5.53;3.13;;;;;;;13.88;95.98;102646.78;4995396;28;101113;-26
2023/09/30 04:58:25;;;;;;;8.73;3.50;;;;;;;13.85;95.78;102641.50;4997482;28;97943;-26
2023/09/30 05:00:50;;;;;;;6.95;3.70;;;;;;;13.83;95.89;102646.13;4997595;28;96604;-27
2023/09/30 05:03:16;;;;;;;4.90;2.90;;;;;;;13.82;96.00;102644.34;4997616;28;96877;-26
2023/09/30 05:05:41;;;;;;;6.32;3.17;;;;;;;13.81;96.33;102651.63;4996399;28;97981;-26
2023/09/30 05:08:07;;;;;;;8.10;3.30;;;;;;;13.77;95.96;102644.53;4996761;28;99332;-26
2023/09/30 05:10:33;;;;;;;8.32;3.17;;;;;;;13.76;96.22;102645.50;4996840;28;96705;-26
2023/09/30 05:12:58;;;;;;;7.20;3.03;;;;;;;13.72;96.16;102635.69;4995838;28;96881;-26
2023/09/30 05:15:24;;;;;;;4.13;2.70;;;;;;;13.72;95.75;102641.16;4996864;28;97457;-26
2023/09/30 05:17:49;;;;;;;6.13;3.47;;;;;;;13.72;96.30;102640.28;4996660;28;99753;-26
2023/09/30 05:20:19;;;;;;;5.80;3.00;;;;;;;13.71;96.31;102646.69;4997373;28;96619;-27
2023/09/30 05:22:45;;;;;;;6.72;3.00;;;;;;;13.74;95.56;102655.59;4997596;28;96517;-27
2023/09/30 05:25:18;;;;;;;5.13;3.05;;;;;;;13.74;96.04;102660.16;4995068;28;100886;-26
2023/09/30 05:27:44;;;;;;;6.35;3.38;;;;;;;13.73;96.40;102652.91;4996758;28;97102;-27
2023/09/30 05:30:10;;;;;;;9.45;4.05;;;;;;;13.72;96.27;102645.72;4996309;28;96543;-26
2023/09/30 05:32:38;;;;;;;7.82;3.13;;;;;;;13.67;96.22;102653.22;4996970;28;96806;-26
2023/09/30 05:35:05;;;;;;;5.25;3.22;;;;;;;13.57;95.96;102645.47;4995170;28;101127;-26
2023/09/30 05:37:31;;;;;;;11.25;3.67;;;;;;;13.63;96.31;102655.19;4996420;28;97318;-26
2023/09/30 05:39:56;;;;;;;6.65;3.42;;;;;;;13.63;96.09;102654.31;4996761;28;96534;-27
2023/09/30 05:42:22;;;;;;;7.97;3.83;;;;;;;13.65;95.79;102661.44;4996989;28;96482;-26
2023/09/30 05:44:48;;;;;;;9.68;3.80;;;;;;;13.66;96.01;102656.88;4997906;28;99936;-26
2023/09/30 05:47:15;;;;;;;6.68;3.25;;;;;;;13.62;96.20;102656.16;4998734;28;100942;-26
2023/09/30 05:49:41;;;;;;;6.88;3.83;;;;;;;13.62;96.25;102656.16;4998850;28;96615;-26
2023/09/30 05:52:07;;;;;;;13.25;4.50;;;;;;;13.63;96.69;102663.34;4998532;28;96880;-26
2023/09/30 05:54:32;;;;;;;8.05;3.53;;;;;;;13.63;97.25;102663.34;4999055;28;98851;-26
2023/09/30 05:56:57;;;;;;;5.85;3.78;;;;;;;13.58;97.15;102654.50;4999862;28;97810;-26
2023/09/30 05:59:24;;;;;;;7.63;4.03;;;;;;;13.66;97.07;102665.06;5000352;28;96563;-27
2023/09/30 06:01:49;;;;;;;7.85;3.67;;;;;;;13.67;96.83;102666.84;5000024;28;97243;-26
2023/09/30 06:04:14;;;;;;;8.30;4.35;;;;;;;13.68;97.07;102664.06;4999538;28;99329;-27
2023/09/30 06:06:42;;;;;;;8.13;3.97;;;;;;;13.72;96.65;102662.06;4999333;28;97711;-27
2023/09/30 06:09:07;;;;;;;7.82;3.80;;;;;;;13.72;97.01;102659.34;4998585;28;96611;-26
2023/09/30 06:11:33;;;;;;;8.20;4.47;;;;;;;13.72;97.00;102659.34;4998907;28;96953;-27
2023/09/30 06:14:00;;;;;;;10.85;4.18;;;;;;;13.76;97.26;102667.31;4997952;28;100810;-26
2023/09/30 06:16:26;;;;;;;11.57;4.70;;;;;;;13.74;97.97;102669.22;4998001;28;100763;-26
2023/09/30 06:18:55;;;;;;;10.10;4.05;;;;;;;13.63;97.88;102654.31;4999322;28;96563;-26
2023/09/30 06:21:21;;;;;;;8.20;4.57;;;;;;;13.73;97.59;102680.16;4998276;28;96959;-26
2023/09/30 06:23:48;;;;;;;10.38;4.82;;;;;;;13.69;98.50;102681.28;4997929;28;101383;-26
2023/09/30 06:26:15;;;;;;;9.77;4.93;;;;;;;13.66;98.50;102684.13;4997793;28;100898;-27
2023/09/30 06:28:40;;;;;;;10.73;4.72;;;;;;;13.62;98.55;102683.38;4998151;28;96568;-27
2023/09/30 06:31:10;;;;;;;10.90;4.88;;;;;;;13.67;98.92;102691.34;4999539;28;96900;-26
2023/09/30 06:33:37;;;;;;;10.65;4.72;;;;;;;13.68;98.28;102698.56;4997618;28;101066;-26
2023/09/30 06:36:07;;;;;;;11.50;4.22;;;;;;;13.69;98.06;102708.50;4998091;28;98838;-27
2023/09/30 06:38:32;;;;;;;11.40;4.65;;;;;;;13.71;97.84;102718.38;4997861;28;96831;-26
2023/09/30 06:40:58;;;;;;;10.60;4.55;;;;;;;13.74;98.24;102715.50;4999644;28;96827;-26
2023/09/30 06:43:25;;;;;;;10.48;4.88;;;;;;;13.79;98.02;102710.72;4996491;28;100975;-26
2023/09/30 06:45:50;;;;;;;14.38;5.40;;;;;;;13.82;98.24;102717.88;4999031;28;97952;-27
2023/09/30 06:48:15;;;;;;;11.38;5.40;;;;;;;13.91;97.05;102717.47;4998909;28;96661;-26
2023/09/30 06:50:45;;;;;;;13.13;4.80;;;;;;;13.81;98.89;102713.41;4999456;28;96683;-26
2023/09/30 06:53:11;;;;;;;10.50;4.68;;;;;;;13.85;98.82;102723.22;4997366;28;101125;-26
2023/09/30 06:55:39;;;;;;;11.93;5.43;;;;;;;13.84;98.20;102713.25;4998394;28;97909;-26
2023/09/30 06:58:07;;;;;;;10.43;5.20;;;;;;;13.91;98.50;102725.63;4997879;28;97063;-26
2023/09/30 07:00:33;;;;;;;8.77;4.82;;;;;;;13.98;97.84;102723.53;4999499;28;96788;-26
2023/09/30 07:02:59;;;;;;;14.57;6.18;;;;;;;13.99;97.48;102736.19;4998404;28;97980;-26
2023/09/30 07:05:24;;;;;;;11.23;5.68;;;;;;;13.98;97.86;102729.84;4998643;28;97876;-26
2023/09/30 07:07:51;;;;;;;10.30;4.57;;;;;;;14.01;98.02;102734.28;4998648;28;96676;-26
2023/09/30 07:10:16;;;;;;;7.10;4.30;;;;;;;14.01;98.79;102742.44;4997664;28;96905;-27
2023/09/30 07:12:42;;;;;;;10.15;4.95;;;;;;;14.02;98.55;102736.06;4999047;28;97560;-27
2023/09/30 07:15:08;;;;;;;8.70;4.65;;;;;;;14.05;98.90;102748.66;4998373;28;99324;-26
2023/09/30 07:17:34;;;;;;;12.70;5.93;;;;;;;14.03;99.12;102751.44;4997329;28;96762;-26
2023/09/30 07:19:59;;;;;;;10.18;4.78;;;;;;;14.07;98.67;102749.47;4997463;28;97208;-27
2023/09/30 07:22:25;;;;;;;10.15;4.85;;;;;;;14.05;98.61;102748.66;4998439;28;97919;-26
2023/09/30 07:24:50;;;;;;;9.30;4.68;;;;;;;14.03;98.49;102751.44;4998683;28;97723;-28
2023/09/30 07:27:16;;;;;;;12.63;5.43;;;;;;;14.07;98.70;102757.66;4998920;28;96704;-26
2023/09/30 07:29:41;;;;;;;12.35;5.55;;;;;;;14.20;98.30;102759.72;4997200;28;96841;-26
2023/09/30 07:32:07;;;;;;;9.23;4.63;;;;;;;14.27;97.81;102757.59;4997327;28;99276;-27
2023/09/30 07:34:33;;;;;;;11.40;5.25;;;;;;;14.43;97.27;102761.38;4996771;28;99321;-26
2023/09/30 07:36:58;;;;;;;10.35;5.00;;;;;;;14.48;97.52;102753.00;4998663;28;96716;-26
2023/09/30 07:39:23;;;;;;;12.60;5.28;;;;;;;14.49;97.81;102764.78;4998240;28;96501;-26
2023/09/30 07:41:49;;;;;;;11.80;5.50;;;;;;;14.55;97.29;102756.34;4998299;28;97452;-26
2023/09/30 07:44:15;;;;;;;10.23;5.43;;;;;;;14.72;96.97;102761.00;4997678;28;97764;-26
2023/09/30 07:46:40;;;;;;;9.82;5.22;;;;;;;14.83;95.45;102755.91;4998457;28;96862;-26
2023/09/30 07:49:07;;;;;;;12.40;5.63;;;;;;;14.89;95.79;102757.44;4998863;28;96857;-27
2023/09/30 07:51:32;;;;;;;9.75;5.57;;;;;;;14.98;95.62;102751.53;4997680;28;99553;-26
2023/09/30 07:53:58;;;;;;;9.25;5.25;;;;;;;15.13;94.83;102756.22;4997842;28;97769;-26
2023/09/30 07:56:23;;;;;;;8.23;4.97;;;;;;;15.19;94.33;102738.66;4997760;28;96571;-26
2023/09/30 07:58:49;;;;;;;9.77;5.47;;;;;;;15.38;93.74;102728.56;4998339;28;96898;-26
2023/09/30 08:01:14;;;;;;;9.88;5.07;;;;;;;15.50;93.12;102725.19;4997806;28;97451;-26
2023/09/30 08:03:40;;;;;;;9.07;4.68;;;;;;;15.53;92.64;102720.53;4996385;28;100810;-27
2023/09/30 08:06:08;;;;;;;11.27;4.90;;;;;;;15.62;92.48;102723.66;4997083;28;96506;-26
2023/09/30 08:08:34;;;;;;;13.63;4.63;;;;;;;15.75;92.00;102709.38;4996552;28;96879;-28
2023/09/30 08:10:59;;;;;;;9.95;4.50;;;;;;;15.94;91.23;102712.88;4997695;28;97542;-27
2023/09/30 08:13:25;;;;;;;9.27;4.03;;;;;;;16.12;90.66;102719.19;4997750;28;99179;-26
2023/09/30 08:15:54;;;;;;;8.32;4.47;;;;;;;16.21;90.12;102713.22;4997659;28;96604;-26
2023/09/30 08:18:19;;;;;;;9.30;4.03;;;;;;;16.28;89.11;102724.69;4992823;28;96785;-26
2023/09/30 08:20:45;;;;;;;8.60;4.65;;;;;;;16.41;89.18;102727.63;4977375;28;97390;-26
2023/09/30 08:23:11;;;;;;;8.82;3.97;;;;;;;16.54;88.41;102721.38;4977850;28;97842;-26
2023/09/30 08:25:37;;;;;;;13.23;4.13;;;;;;;16.64;87.80;102712.66;4976519;28;96795;-26
2023/09/30 08:28:04;;;;;;;9.77;4.25;;;;;;;16.79;87.31;102706.31;4976586;28;96921;-26
2023/09/30 08:30:29;;;;;;;7.35;3.70;;;;;;;16.88;87.21;102700.31;4975866;28;101042;-26
2023/09/30 08:32:54;;;;;;;7.93;3.28;;;;;;;17.02;86.81;102717.75;4977210;28;98696;-28
2023/09/30 08:35:20;;;;;;;7.00;3.95;;;;;;;17.04;86.32;102711.25;4978030;28;96648;-26
2023/09/30 08:37:45;;;;;;;7.60;3.95;;;;;;;17.04;86.01;102715.81;4978055;28;96772;-27
2023/09/30 08:40:11;;;;;;;10.35;4.28;;;;;;;17.12;85.55;102721.75;4977468;28;97389;-27
2023/09/30 08:42:38;;;;;;;9.63;3.78;;;;;;;17.18;86.21;102732.31;4975932;28;100893;-27
2023/09/30 08:45:07;;;;;;;8.25;3.95;;;;;;;17.19;85.88;102725.88;4974994;28;96964;-26
2023/09/30 08:47:35;;;;;;;10.30;3.85;;;;;;;17.27;85.48;102734.50;4976092;28;96823;-28
2023/09/30 08:50:05;;;;;;;6.35;3.45;;;;;;;17.28;84.81;102750.00;4975740;28;101356;-27
2023/09/30 08:52:35;;;;;;;11.20;3.35;;;;;;;17.32;85.13;102751.53;4975785;28;100816;-27
2023/09/30 08:55:01;;;;;;;6.43;3.78;;;;;;;17.43;84.95;102752.78;4976272;28;96715;-26
2023/09/30 08:57:29;;;;;;;9.63;3.70;;;;;;;17.53;84.45;102745.75;4977167;28;96968;-26
2023/09/30 08:59:54;;;;;;;4.57;3.05;;;;;;;17.71;84.49;102763.84;4975540;28;101006;-27
2023/09/30 09:02:20;;;;;;;9.90;3.28;;;;;;;17.80;83.67;102770.59;4975963;28;100914;-26
2023/09/30 09:04:46;;;;;;;6.28;3.22;;;;;;;17.83;83.78;102768.59;4977427;28;96557;-26
2023/09/30 09:07:11;;;;;;;7.40;3.22;;;;;;;17.89;83.79;102788.38;4977259;28;96857;-26
2023/09/30 09:09:37;;;;;;;6.72;3.13;;;;;;;17.94;83.24;102794.47;4976698;28;97907;-26
2023/09/30 09:12:03;;;;;;;9.45;3.17;;;;;;;17.99;83.04;102800.53;4976869;28;97827;-26
2023/09/30 09:14:42;;;;;;;6.97;2.97;;;;;;;18.10;82.81;102795.28;4976083;28;96588;-26
2023/09/30 09:17:08;;;;;;;6.93;3.13;;;;;;;18.17;83.27;102787.56;4976551;28;96716;-26
2023/09/30 09:19:34;;;;;;;7.50;2.95;;;;;;;18.29;83.00;102786.78;4979002;28;101585;-28
2023/09/30 09:22:04;;;;;;;11.27;2.83;;;;;;;18.39;81.62;102798.03;4978885;28;99752;-27
2023/09/30 09:24:34;;;;;;;8.00;2.92;;;;;;;18.46;81.30;102788.44;4976854;28;96841;-27
2023/09/30 09:27:06;;;;;;;5.38;2.38;;;;;;;18.56;81.82;102785.97;4978188;28;96831;-26
2023/09/30 09:29:33;;;;;;;8.18;3.15;;;;;;;18.68;80.49;102794.28;4976307;28;100852;-26
2023/09/30 09:32:12;;;;;;;7.03;2.20;;;;;;;18.82;80.40;102803.53;4976167;28;101563;-27
2023/09/30 09:34:39;;;;;;;5.75;2.30;;;;;;;18.90;80.63;102801.16;4976066;28;96698;-28
2023/09/30 09:37:18;;;;;;;6.22;1.92;;;;;;;19.04;80.10;102801.16;4976285;28;96978;-26
2023/09/30 09:39:56;;;;;;;3.72;2.10;;;;;;;19.17;80.30;102792.97;4975930;28;101360;-26
2023/09/30 09:42:32;;;;;;;6.95;2.53;;;;;;;19.30;79.36;102796.66;4977331;28;99417;-26
2023/09/30 09:45:00;;;;;;;6.53;2.30;;;;;;;19.45;78.44;102797.50;4975770;28;96915;-26
2023/09/30 09:47:26;;;;;;;4.18;2.10;;;;;;;19.65;78.59;102798.00;4976349;28;96715;-26
2023/09/30 09:49:55;;;;;;;5.55;2.15;;;;;;;19.70;76.76;102798.59;4977511;28;98011;-28
2023/09/30 09:52:23;;;;;;;11.65;2.28;;;;;;;19.84;75.94;102803.13;4976297;28;101661;-27
2023/09/30 09:54:50;;;;;;;3.78;1.85;;;;;;;19.91;75.42;102796.22;4977604;28;96517;-27
2023/09/30 09:57:18;;;;;;;6.47;2.50;;;;;;;20.04;76.39;102799.84;4976227;28;96971;-26
2023/09/30 09:59:46;;;;;;;4.13;1.55;;;;;;;20.08;74.84;102786.75;4976767;28;99870;-26
2023/09/30 10:02:14;;;;;;;6.97;1.80;;;;;;;20.32;75.53;102786.88;4976970;28;97322;-27
2023/09/30 10:04:42;;;;;;;4.75;1.52;;;;;;;20.33;72.98;102785.88;4976063;28;96601;-26
2023/09/30 10:07:11;;;;;;;3.13;1.30;;;;;;;20.34;72.67;102779.41;4975935;28;96891;-26
2023/09/30 10:09:37;;;;;;;3.40;1.30;;;;;;;20.51;73.05;102778.16;4975756;28;99026;-26
2023/09/30 10:12:03;;;;;;;4.68;1.60;;;;;;;20.51;70.14;102770.78;4975710;28;100787;-26
2023/09/30 10:14:33;;;;;;;5.60;1.48;;;;;;;20.54;71.89;102764.16;4976045;28;96551;-26
2023/09/30 10:16:58;;;;;;;4.57;1.45;;;;;;;20.70;71.19;102756.56;4976246;28;96970;-26
2023/09/30 10:19:24;;;;;;;6.47;1.98;;;;;;;20.89;72.00;102756.06;4977084;28;98044;-26
2023/09/30 10:22:27;;;;;;;7.53;1.77;;;;;;;20.91;67.10;102755.97;4975410;28;101149;-26
2023/09/30 10:24:57;;;;;;;4.53;1.52;;;;;;;20.83;67.26;102747.38;4976870;28;96546;-26
2023/09/30 10:27:28;;;;;;;3.28;1.33;;;;;;;20.90;68.98;102755.06;4976990;28;96843;-27
2023/09/30 10:29:57;;;;;;;4.28;1.70;;;;;;;20.83;69.76;102764.78;4975905;28;99375;-26
2023/09/30 10:32:23;;;;;;;4.50;1.50;;;;;;;20.55;70.36;102763.19;4975413;28;100870;-26
2023/09/30 10:34:51;;;;;;;4.68;1.58;;;;;;;20.76;70.88;102753.38;4976859;28;96735;-26
2023/09/30 10:37:26;;;;;;;4.40;1.33;;;;;;;20.91;69.34;102756.84;4975500;28;96851;-26
2023/09/30 10:39:58;;;;;;;3.45;1.13;;;;;;;20.92;69.33;102761.34;4976581;28;97449;-28
2023/09/30 10:42:57;;;;;;;5.10;2.05;;;;;;;21.01;66.40;102754.28;4977100;28;97274;-26
2023/09/30 10:45:45;;;;;;;7.15;1.92;;;;;;;21.10;66.63;102761.84;4963865;28;96937;-27
2023/09/30 10:48:30;;;;;;;4.13;1.50;;;;;;;21.21;63.95;102759.16;4975290;28;96883;-27
2023/09/30 10:51:14;;;;;;;4.28;1.58;;;;;;;21.32;63.04;102754.69;4974657;28;101373;-26
2023/09/30 10:53:42;;;;;;;7.80;2.15;;;;;;;21.35;63.46;102758.06;4976644;28;98042;-26
2023/09/30 10:56:07;;;;;;;4.93;1.80;;;;;;;21.40;64.37;102755.91;4975212;28;96604;-26
2023/09/30 10:59:02;;;;;;;3.65;1.50;;;;;;;21.59;63.97;102752.56;4976555;28;96888;-28
2023/09/30 11:01:32;;;;;;;4.55;1.88;;;;;;;21.72;64.72;102746.13;4975338;28;97985;-26
2023/09/30 11:04:04;;;;;;;4.57;2.10;;;;;;;21.76;63.84;102736.56;4974889;28;101049;-26
2023/09/30 11:06:29;;;;;;;6.55;2.25;;;;;;;21.83;64.94;102748.88;4975117;28;96615;-30
2023/09/30 11:09:00;;;;;;;5.38;1.77;;;;;;;21.74;63.32;102735.84;4976590;28;96863;-27
2023/09/30 11:11:42;;;;;;;6.95;1.58;;;;;;;21.80;62.00;102741.72;4974775;28;101007;-26
2023/09/30 11:14:25;;;;;;;4.65;1.65;;;;;;;21.82;60.87;102742.50;4974614;28;100972;-26
2023/09/30 11:16:52;;;;;;;6.15;1.70;;;;;;;21.79;63.51;102728.94;4974325;28;96688;-26
2023/09/30 11:19:20;;;;;;;4.72;1.88;;;;;;;21.65;61.32;102720.88;4974784;28;96949;-26
2023/09/30 11:21:48;;;;;;;4.07;1.25;;;;;;;21.57;59.46;102717.84;4974525;28;101320;-26